createdAt,value
2023-02-06T00:01:42.187Z,13.27
2023-02-06T00:04:10.227Z,13.93
2023-02-06T00:06:39.840Z,13.83
2023-02-06T00:09:08.502Z,12.93
2023-02-06T00:11:37.358Z,13.70
2023-02-06T00:14:05.724Z,12.33
2023-02-06T00:16:35.680Z,13.27
2023-02-06T00:19:04.927Z,12.80
2023-02-06T00:21:33.364Z,12.33
2023-02-06T00:24:03.663Z,12.80
2023-02-06T00:26:35.317Z,12.10
2023-02-06T00:29:03.305Z,12.47
2023-02-06T00:31:31.580Z,12.10
2023-02-06T00:33:59.638Z,11.13
2023-02-06T00:36:28.231Z,11.87
2023-02-06T00:38:56.308Z,10.70
2023-02-06T00:41:25.708Z,11.23
2023-02-06T00:43:53.691Z,11.20
2023-02-06T00:46:21.778Z,10.53
2023-02-06T00:48:49.817Z,11.07
2023-02-06T00:51:17.804Z,11.03
2023-02-06T00:53:45.884Z,10.43
2023-02-06T00:56:15.740Z,10.80
2023-02-06T00:58:45.166Z,10.67
2023-02-06T01:01:13.175Z,10.63
2023-02-06T01:03:41.170Z,10.17
2023-02-06T01:06:09.265Z,9.73
2023-02-06T01:08:37.228Z,10.93
2023-02-06T01:11:11.231Z,10.63
2023-02-06T01:13:39.223Z,10.97
2023-02-06T01:16:10.698Z,11.17
2023-02-06T01:18:38.819Z,10.87
2023-02-06T01:21:10.247Z,10.80
2023-02-06T01:23:39.337Z,10.83
2023-02-06T01:26:10.189Z,10.93
2023-02-06T01:28:38.700Z,11.13
2023-02-06T01:31:13.073Z,11.60
2023-02-06T01:33:42.085Z,12.57
2023-02-06T01:36:11.024Z,11.53
2023-02-06T01:38:39.343Z,12.00
2023-02-06T01:41:08.753Z,12.93
2023-02-06T01:43:38.901Z,12.27
2023-02-06T01:46:07.792Z,11.17
2023-02-06T01:48:42.384Z,12.67
2023-02-06T01:51:20.836Z,12.70
2023-02-06T01:53:52.617Z,12.87
2023-02-06T01:56:22.267Z,11.83
2023-02-06T01:58:54.624Z,12.73
2023-02-06T02:01:23.036Z,12.73
2023-02-06T02:03:57.270Z,11.83
2023-02-06T02:06:27.519Z,12.60
2023-02-06T02:08:58.405Z,12.03
2023-02-06T02:11:31.403Z,12.27
2023-02-06T02:14:00.411Z,12.23
2023-02-06T02:16:39.359Z,11.87
2023-02-06T02:19:37.658Z,12.77
2023-02-06T02:22:41.019Z,11.87
2023-02-06T02:25:32.882Z,11.83
2023-02-06T02:28:23.083Z,12.93
2023-02-06T02:31:18.473Z,12.37
2023-02-06T02:34:14.527Z,12.30
2023-02-06T02:36:49.703Z,13.00
2023-02-06T02:39:25.824Z,14.07
2023-02-06T02:42:00.762Z,13.40
2023-02-06T02:44:36.340Z,13.90
2023-02-06T02:47:08.868Z,14.23
2023-02-06T02:49:38.960Z,13.67
2023-02-06T02:52:09.163Z,14.07
2023-02-06T02:54:37.126Z,14.53
2023-02-06T02:57:10.369Z,14.27
2023-02-06T02:59:43.156Z,13.63
2023-02-06T03:02:13.934Z,13.17
2023-02-06T03:04:52.844Z,13.73
2023-02-06T03:07:28.774Z,13.63
2023-02-06T03:10:07.134Z,12.30
2023-02-06T03:12:45.083Z,14.23
2023-02-06T03:15:24.063Z,13.63
2023-02-06T03:18:00.576Z,13.87
2023-02-06T03:20:30.859Z,14.47
2023-02-06T03:23:01.896Z,14.67
2023-02-06T03:25:38.042Z,14.90
2023-02-06T03:28:11.899Z,15.03
2023-02-06T03:30:43.897Z,14.80
2023-02-06T03:33:14.691Z,16.10
2023-02-06T03:35:44.168Z,14.57
2023-02-06T03:38:14.067Z,14.50
2023-02-06T03:40:45.584Z,15.07
2023-02-06T03:43:18.819Z,14.57
2023-02-06T03:45:51.430Z,14.27
2023-02-06T03:48:24.523Z,13.93
2023-02-06T03:50:56.967Z,14.77
2023-02-06T03:53:28.964Z,13.73
2023-02-06T03:56:03.332Z,14.77
2023-02-06T03:58:31.958Z,15.60
2023-02-06T04:01:02.636Z,17.03
2023-02-06T04:03:30.776Z,17.13
2023-02-06T04:05:58.838Z,17.67
2023-02-06T04:08:28.190Z,16.77
2023-02-06T04:10:56.171Z,17.13
2023-02-06T04:13:24.171Z,16.90
2023-02-06T04:15:52.796Z,16.57
2023-02-06T04:18:20.996Z,15.53
2023-02-06T04:20:48.967Z,15.70
2023-02-06T04:23:17.573Z,16.40
2023-02-06T04:25:47.159Z,15.47
2023-02-06T04:28:15.454Z,15.67
2023-02-06T04:30:43.598Z,15.93
2023-02-06T04:33:11.733Z,14.70
2023-02-06T04:35:39.828Z,14.77
2023-02-06T04:38:07.831Z,15.40
2023-02-06T04:40:35.811Z,14.53
2023-02-06T04:43:05.122Z,14.47
2023-02-06T04:45:33.083Z,15.80
2023-02-06T04:48:02.561Z,14.80
2023-02-06T04:50:31.842Z,15.33
2023-02-06T04:53:00.145Z,15.33
2023-02-06T04:55:28.296Z,16.33
2023-02-06T04:57:56.299Z,15.67
2023-02-06T05:00:28.052Z,15.53
2023-02-06T05:02:56.041Z,15.10
2023-02-06T05:05:23.996Z,15.53
2023-02-06T05:07:51.998Z,14.50
2023-02-06T05:10:20.416Z,15.97
2023-02-06T05:12:50.825Z,15.70
2023-02-06T05:15:19.174Z,16.17
2023-02-06T05:17:48.492Z,17.30
2023-02-06T05:20:16.491Z,17.30
2023-02-06T05:22:44.475Z,16.77
2023-02-06T05:25:12.484Z,16.93
2023-02-06T05:27:40.468Z,16.97
2023-02-06T05:30:09.296Z,15.83
2023-02-06T05:32:37.310Z,15.67
2023-02-06T05:35:07.579Z,15.03
2023-02-06T05:37:37.121Z,15.43
2023-02-06T05:40:05.484Z,15.00
2023-02-06T05:42:33.520Z,14.70
2023-02-06T05:45:01.587Z,13.90
2023-02-06T05:47:29.747Z,13.70
2023-02-06T05:49:57.722Z,13.63
2023-02-06T05:52:27.127Z,15.63
2023-02-06T05:54:55.142Z,16.73
2023-02-06T05:57:23.098Z,17.83
2023-02-06T05:59:51.103Z,19.00
2023-02-06T06:02:19.123Z,20.33
2023-02-06T06:04:47.330Z,21.97
2023-02-06T06:07:15.571Z,23.53
2023-02-06T06:09:44.949Z,22.43
2023-02-06T06:12:12.966Z,21.27
2023-02-06T06:14:40.934Z,18.43
2023-02-06T06:17:08.906Z,15.07
2023-02-06T06:19:37.178Z,14.47
2023-02-06T06:22:05.195Z,14.00
2023-02-06T06:24:33.215Z,14.63
2023-02-06T06:27:03.666Z,13.73
2023-02-06T06:29:31.932Z,13.63
2023-02-06T06:31:59.973Z,14.20
2023-02-06T06:34:28.436Z,13.63
2023-02-06T06:36:56.438Z,14.13
2023-02-06T06:39:24.623Z,14.60
2023-02-06T06:41:52.629Z,14.60
2023-02-06T06:44:22.379Z,15.73
2023-02-06T06:46:50.366Z,15.03
2023-02-06T06:49:18.519Z,14.67
2023-02-06T06:51:46.493Z,14.13
2023-02-06T06:54:15.206Z,14.90
2023-02-06T06:56:43.387Z,14.30
2023-02-06T06:59:11.351Z,13.40
2023-02-06T07:01:41.752Z,14.70
2023-02-06T07:04:09.835Z,13.53
2023-02-06T07:06:37.856Z,13.97
2023-02-06T07:09:05.840Z,14.60
2023-02-06T07:11:33.862Z,13.70
2023-02-06T07:14:01.807Z,14.90
2023-02-06T07:16:29.852Z,15.13
2023-02-06T07:18:59.205Z,14.37
2023-02-06T07:21:27.232Z,14.73
2023-02-06T07:23:55.302Z,14.17
2023-02-06T07:26:23.504Z,14.83
2023-02-06T07:28:52.608Z,15.47
2023-02-06T07:31:20.666Z,14.87
2023-02-06T07:33:49.055Z,14.67
2023-02-06T07:36:18.938Z,15.37
2023-02-06T07:38:47.142Z,15.20
2023-02-06T07:41:15.991Z,15.50
2023-02-06T07:43:43.955Z,15.63
2023-02-06T07:46:12.446Z,13.97
2023-02-06T07:48:40.921Z,14.93
2023-02-06T07:51:10.202Z,12.83
2023-02-06T07:53:39.911Z,12.93
2023-02-06T07:56:12.941Z,12.87
2023-02-06T07:58:41.325Z,12.40
2023-02-06T08:01:09.862Z,13.13
2023-02-06T08:03:37.931Z,13.03
2023-02-06T08:06:10.160Z,13.57
2023-02-06T08:08:39.826Z,12.97
2023-02-06T08:11:08.733Z,12.20
2023-02-06T08:13:37.181Z,11.30
2023-02-06T08:16:06.960Z,11.03
2023-02-06T08:18:35.210Z,11.53
2023-02-06T08:21:03.917Z,11.77
2023-02-06T08:23:34.350Z,10.87
2023-02-06T08:26:04.772Z,10.80
2023-02-06T08:28:35.162Z,11.13
2023-02-06T08:31:09.848Z,10.23
2023-02-06T08:33:37.981Z,10.97
2023-02-06T08:36:07.742Z,9.80
2023-02-06T08:38:36.286Z,10.83
2023-02-06T08:41:06.424Z,10.40
2023-02-06T08:43:38.232Z,9.57
2023-02-06T08:46:06.310Z,7.73
2023-02-06T08:48:34.336Z,7.47
2023-02-06T08:51:07.211Z,7.67
2023-02-06T08:53:38.612Z,7.17
2023-02-06T08:56:10.416Z,8.53
2023-02-06T08:58:39.390Z,9.10
2023-02-06T09:01:08.749Z,8.93
2023-02-06T09:03:38.539Z,9.30
2023-02-06T09:06:10.372Z,9.17
2023-02-06T09:08:39.285Z,9.93
2023-02-06T09:11:10.192Z,10.73
2023-02-06T09:13:38.964Z,9.47
2023-02-06T09:16:07.969Z,9.53
2023-02-06T09:18:36.379Z,9.97
2023-02-06T09:21:08.091Z,9.63
2023-02-06T09:23:36.587Z,11.00
2023-02-06T09:26:04.842Z,9.23
2023-02-06T09:28:34.559Z,9.23
2023-02-06T09:31:02.828Z,8.33
2023-02-06T09:33:31.047Z,8.43
2023-02-06T09:36:07.094Z,8.77
2023-02-06T09:38:35.873Z,8.80
2023-02-06T09:41:07.307Z,9.27
2023-02-06T09:43:37.184Z,9.13
2023-02-06T09:46:10.155Z,9.63
2023-02-06T09:48:39.899Z,8.87
2023-02-06T09:51:18.175Z,8.30
2023-02-06T09:53:56.121Z,8.77
2023-02-06T09:56:33.741Z,7.87
2023-02-06T09:59:08.996Z,6.90
2023-02-06T10:01:44.999Z,7.30
2023-02-06T10:04:32.743Z,7.23
2023-02-06T10:07:11.348Z,7.33
2023-02-06T10:09:42.639Z,7.13
2023-02-06T10:12:15.046Z,7.57
2023-02-06T10:14:47.931Z,7.93
2023-02-06T10:17:21.617Z,6.67
2023-02-06T10:19:56.293Z,6.30
2023-02-06T10:22:30.998Z,5.53
2023-02-06T10:25:15.167Z,6.27
2023-02-06T10:27:44.929Z,6.17
2023-02-06T10:30:18.709Z,6.47
2023-02-06T10:32:52.214Z,6.77
2023-02-06T10:35:37.193Z,6.50
2023-02-06T10:38:27.671Z,5.87
2023-02-06T10:41:04.691Z,5.50
2023-02-06T10:43:41.747Z,6.00
2023-02-06T10:46:33.950Z,6.07
2023-02-06T10:49:06.423Z,5.93
2023-02-06T10:51:37.176Z,6.13
2023-02-06T10:54:07.549Z,6.07
2023-02-06T10:56:40.199Z,6.07
2023-02-06T10:59:17.526Z,5.70
2023-02-06T11:01:48.871Z,5.77
2023-02-06T11:04:21.119Z,5.53
2023-02-06T11:06:49.503Z,6.53
2023-02-06T11:09:17.491Z,5.77
2023-02-06T11:11:48.573Z,6.60
2023-02-06T11:14:19.770Z,6.30
2023-02-06T11:16:49.458Z,6.20
2023-02-06T11:19:20.031Z,6.77
2023-02-06T11:21:52.031Z,6.77
2023-02-06T11:24:22.420Z,7.40
2023-02-06T11:26:54.202Z,8.33
2023-02-06T11:29:25.840Z,7.17
2023-02-06T11:32:00.519Z,6.70
2023-02-06T11:34:32.147Z,6.80
2023-02-06T11:37:01.791Z,6.83
2023-02-06T11:39:32.223Z,6.10
2023-02-06T11:42:06.432Z,6.13
2023-02-06T11:44:39.768Z,6.30
2023-02-06T11:47:39.265Z,6.07
2023-02-06T11:50:24.679Z,6.70
2023-02-06T11:52:58.469Z,6.67
2023-02-06T11:55:28.834Z,5.97
2023-02-06T11:58:07.422Z,7.33
2023-02-06T12:00:39.066Z,6.97
2023-02-06T12:03:30.600Z,7.37
2023-02-06T12:06:03.702Z,7.70
2023-02-06T12:08:41.613Z,7.10
2023-02-06T12:11:17.379Z,7.20
2023-02-06T12:13:50.474Z,6.33
2023-02-06T12:16:19.299Z,7.27
2023-02-06T12:18:51.930Z,7.50
2023-02-06T12:21:26.917Z,7.03
2023-02-06T12:23:57.968Z,6.57
2023-02-06T12:26:29.982Z,6.20
2023-02-06T12:29:03.085Z,6.57
2023-02-06T12:31:39.583Z,6.73
2023-02-06T12:34:15.686Z,6.53
2023-02-06T12:36:55.121Z,6.50
2023-02-06T12:39:24.110Z,6.40
2023-02-06T12:42:19.068Z,6.23
2023-02-06T12:44:51.629Z,6.00
2023-02-06T12:47:26.438Z,6.17
2023-02-06T12:50:01.763Z,6.30
2023-02-06T12:52:35.383Z,6.30
2023-02-06T12:55:12.501Z,7.13
2023-02-06T12:57:40.972Z,6.80
2023-02-06T13:00:40.404Z,7.43
2023-02-06T13:03:28.702Z,6.83
2023-02-06T13:06:04.915Z,6.87
2023-02-06T13:08:42.286Z,7.27
2023-02-06T13:11:16.591Z,7.07
2023-02-06T13:13:44.748Z,7.00
2023-02-06T13:16:13.002Z,7.47
2023-02-06T13:19:05.070Z,7.87
2023-02-06T13:21:36.796Z,7.87
2023-02-06T13:24:17.659Z,7.50
2023-02-06T13:27:13.104Z,7.70
2023-02-06T13:29:42.928Z,7.53
2023-02-06T13:32:41.121Z,7.23
2023-02-06T13:35:22.805Z,7.53
2023-02-06T13:38:10.372Z,8.30
2023-02-06T13:40:40.990Z,7.60
2023-02-06T13:43:18.496Z,8.07
2023-02-06T13:45:48.755Z,7.77
2023-02-06T13:48:40.105Z,6.77
2023-02-06T13:51:27.633Z,6.87
2023-02-06T13:54:27.759Z,7.27
2023-02-06T13:57:15.854Z,7.10
2023-02-06T13:59:47.663Z,7.00
2023-02-06T14:02:26.348Z,7.03
2023-02-06T14:04:56.704Z,6.80
2023-02-06T14:07:45.015Z,7.07
2023-02-06T14:10:32.268Z,6.93
2023-02-06T14:13:10.564Z,8.27
2023-02-06T14:15:48.042Z,8.33
2023-02-06T14:18:35.359Z,8.70
2023-02-06T14:21:14.862Z,8.17
2023-02-06T14:23:58.427Z,8.87
2023-02-06T14:26:37.760Z,7.80
2023-02-06T14:29:20.218Z,6.57
2023-02-06T14:32:12.003Z,8.33
2023-02-06T14:34:56.409Z,7.77
2023-02-06T14:37:46.888Z,6.97
2023-02-06T14:40:20.042Z,7.67
2023-02-06T14:42:51.207Z,6.80
2023-02-06T14:45:29.313Z,6.60
2023-02-06T14:48:03.054Z,7.03
2023-02-06T14:50:33.255Z,7.90
2023-02-06T14:53:05.859Z,7.70
2023-02-06T14:55:37.321Z,8.07
2023-02-06T14:58:20.735Z,7.70
2023-02-06T15:00:49.038Z,7.53
2023-02-06T15:03:18.685Z,7.37
2023-02-06T15:05:47.705Z,7.57
2023-02-06T15:08:21.148Z,8.00
2023-02-06T15:10:57.504Z,8.43
2023-02-06T15:13:34.766Z,8.17
2023-02-06T15:16:05.691Z,8.27
2023-02-06T15:18:37.360Z,8.43
2023-02-06T15:21:07.057Z,8.27
2023-02-06T15:23:48.559Z,8.80
2023-02-06T15:26:26.881Z,8.40
2023-02-06T15:29:00.469Z,8.60
2023-02-06T15:31:29.946Z,8.17
2023-02-06T15:34:00.346Z,9.63
2023-02-06T15:36:33.177Z,9.23
2023-02-06T15:39:01.904Z,9.90
2023-02-06T15:41:31.468Z,9.30
2023-02-06T15:44:04.226Z,9.60
2023-02-06T15:46:33.942Z,8.77
2023-02-06T15:49:02.019Z,9.43
2023-02-06T15:51:39.864Z,8.73
2023-02-06T15:54:11.575Z,8.70
2023-02-06T15:56:42.675Z,9.33
2023-02-06T15:59:21.009Z,9.13
2023-02-06T16:01:49.957Z,9.07
2023-02-06T16:04:23.949Z,9.77
2023-02-06T16:07:03.470Z,9.77
2023-02-06T16:09:31.792Z,9.03
2023-02-06T16:11:59.974Z,9.80
2023-02-06T16:14:37.893Z,8.57
2023-02-06T16:17:23.485Z,9.27
2023-02-06T16:19:57.368Z,10.07
2023-02-06T16:22:27.642Z,10.07
2023-02-06T16:25:12.617Z,11.47
2023-02-06T16:27:44.496Z,16.23
2023-02-06T16:30:24.655Z,25.07
2023-02-06T16:32:55.390Z,31.33
2023-02-06T16:35:24.343Z,46.07
2023-02-06T16:37:55.287Z,59.77
2023-02-06T16:40:26.059Z,60.87
2023-02-06T16:42:54.213Z,59.33
2023-02-06T16:45:26.229Z,49.17
2023-02-06T16:47:55.291Z,45.20
2023-02-06T16:50:23.534Z,40.97
2023-02-06T16:52:56.045Z,35.30
2023-02-06T16:55:26.080Z,35.23
2023-02-06T16:57:58.597Z,34.80
2023-02-06T17:00:31.404Z,36.80
2023-02-06T17:02:59.721Z,34.87
2023-02-06T17:05:29.335Z,32.53
2023-02-06T17:07:57.582Z,30.50
2023-02-06T17:10:27.516Z,32.80
2023-02-06T17:12:55.537Z,43.67
2023-02-06T17:15:23.618Z,52.00
2023-02-06T17:17:54.769Z,49.63
2023-02-06T17:20:33.336Z,44.17
2023-02-06T17:23:01.376Z,37.23
2023-02-06T17:25:29.496Z,32.70
2023-02-06T17:27:57.609Z,30.80
2023-02-06T17:30:27.014Z,28.47
2023-02-06T17:32:56.672Z,26.57
2023-02-06T17:35:25.150Z,24.40
2023-02-06T17:37:53.389Z,22.77
2023-02-06T17:40:24.955Z,21.13
2023-02-06T17:42:54.132Z,23.17
2023-02-06T17:45:22.393Z,42.67
2023-02-06T17:47:50.636Z,81.13
2023-02-06T17:50:21.856Z,91.30
2023-02-06T17:52:49.876Z,87.83
2023-02-06T17:55:17.961Z,110.53
2023-02-06T17:57:46.008Z,105.50
2023-02-06T18:00:17.859Z,78.53
2023-02-06T18:02:46.210Z,61.77
2023-02-06T18:05:14.320Z,47.07
2023-02-06T18:07:43.677Z,39.30
2023-02-06T18:10:12.730Z,36.63
2023-02-06T18:12:40.817Z,35.00
2023-02-06T18:15:09.678Z,34.47
2023-02-06T18:17:37.729Z,31.40
2023-02-06T18:20:07.058Z,29.33
2023-02-06T18:22:41.137Z,30.33
2023-02-06T18:25:12.829Z,29.80
2023-02-06T18:27:41.930Z,29.87
2023-02-06T18:30:11.770Z,31.23
2023-02-06T18:32:40.150Z,31.47
2023-02-06T18:35:09.338Z,33.70
2023-02-06T18:37:37.605Z,32.87
2023-02-06T18:40:06.205Z,34.47
2023-02-06T18:42:56.556Z,34.23
2023-02-06T18:45:31.113Z,39.23
2023-02-06T18:47:59.190Z,41.63
2023-02-06T18:50:27.192Z,40.20
2023-02-06T18:52:55.653Z,40.00
2023-02-06T18:55:24.854Z,40.57
2023-02-06T18:57:56.676Z,38.37
2023-02-06T19:00:25.231Z,37.07
2023-02-06T19:02:53.319Z,37.57
2023-02-06T19:05:21.849Z,37.30
2023-02-06T19:07:50.955Z,37.97
2023-02-06T19:10:20.416Z,38.27
2023-02-06T19:12:48.864Z,36.33
2023-02-06T19:15:18.333Z,37.73
2023-02-06T19:17:46.325Z,36.10
2023-02-06T19:20:14.604Z,36.10
2023-02-06T19:22:42.610Z,35.63
2023-02-06T19:25:14.556Z,33.13
2023-02-06T19:27:43.718Z,30.70
2023-02-06T19:30:13.803Z,28.87
2023-02-06T19:32:43.908Z,28.70
2023-02-06T19:35:12.957Z,28.47
2023-02-06T19:37:41.281Z,28.10
2023-02-06T19:40:10.363Z,27.37
2023-02-06T19:42:39.516Z,27.57
2023-02-06T19:45:07.943Z,28.00
2023-02-06T19:47:37.691Z,26.60
2023-02-06T19:50:07.996Z,27.20
2023-02-06T19:52:36.035Z,28.43
2023-02-06T19:55:04.283Z,28.57
2023-02-06T19:57:32.549Z,29.03
2023-02-06T20:00:04.608Z,30.93
2023-02-06T20:02:35.461Z,33.23
2023-02-06T20:05:03.512Z,36.47
2023-02-06T20:07:32.927Z,35.70
2023-02-06T20:10:00.970Z,37.83
2023-02-06T20:12:29.234Z,35.27
2023-02-06T20:14:57.457Z,33.57
2023-02-06T20:17:26.903Z,34.70
2023-02-06T20:19:55.366Z,34.47
2023-02-06T20:22:23.434Z,33.00
2023-02-06T20:24:52.791Z,33.10
2023-02-06T20:27:22.342Z,32.87
2023-02-06T20:29:50.665Z,33.23
2023-02-06T20:32:20.466Z,32.40
2023-02-06T20:34:48.467Z,34.43
2023-02-06T20:37:19.271Z,33.03
2023-02-06T20:39:47.525Z,32.70
2023-02-06T20:42:16.866Z,33.67
2023-02-06T20:44:44.846Z,33.00
2023-02-06T20:47:12.884Z,31.27
2023-02-06T20:49:41.894Z,32.80
2023-02-06T20:52:09.863Z,30.80
2023-02-06T20:54:37.966Z,32.00
2023-02-06T20:57:05.965Z,32.60
2023-02-06T20:59:37.499Z,36.50
2023-02-06T21:02:05.534Z,37.40
2023-02-06T21:04:34.282Z,36.33
2023-02-06T21:07:02.305Z,36.57
2023-02-06T21:09:30.597Z,36.30
2023-02-06T21:11:58.616Z,39.20
2023-02-06T21:14:28.028Z,40.60
2023-02-06T21:17:00.017Z,38.87
2023-02-06T21:19:29.181Z,37.97
2023-02-06T21:21:57.573Z,38.73
2023-02-06T21:24:25.581Z,37.23
2023-02-06T21:26:53.854Z,36.83
2023-02-06T21:29:22.930Z,34.60
2023-02-06T21:31:55.738Z,35.07
2023-02-06T21:34:32.235Z,33.40
2023-02-06T21:37:00.221Z,32.33
2023-02-06T21:39:28.914Z,31.53
2023-02-06T21:41:56.990Z,32.93
2023-02-06T21:44:26.388Z,33.93
2023-02-06T21:46:57.733Z,35.13
2023-02-06T21:49:26.896Z,35.47
2023-02-06T21:51:59.547Z,37.73
2023-02-06T21:54:29.281Z,36.47
2023-02-06T21:56:58.629Z,38.77
2023-02-06T21:59:26.690Z,39.33
2023-02-06T22:01:55.026Z,37.67
2023-02-06T22:04:23.101Z,38.27
2023-02-06T22:06:51.079Z,39.17
2023-02-06T22:09:20.934Z,37.93
2023-02-06T22:11:49.010Z,37.73
2023-02-06T22:14:18.454Z,37.23
2023-02-06T22:16:47.104Z,38.27
2023-02-06T22:19:15.972Z,38.50
2023-02-06T22:21:44.275Z,36.87
2023-02-06T22:24:13.529Z,37.23
2023-02-06T22:26:43.228Z,35.53
2023-02-06T22:29:13.357Z,37.40
2023-02-06T22:31:43.290Z,37.60
2023-02-06T22:34:15.006Z,39.00
2023-02-06T22:36:44.458Z,39.40
2023-02-06T22:39:14.189Z,42.73
2023-02-06T22:41:45.449Z,46.57
2023-02-06T22:44:16.259Z,46.73
2023-02-06T22:46:45.825Z,43.47
2023-02-06T22:49:13.880Z,44.30
2023-02-06T22:51:42.295Z,45.93
2023-02-06T22:54:10.629Z,49.37
2023-02-06T22:56:40.978Z,51.00
2023-02-06T22:59:13.039Z,50.40
2023-02-06T23:01:42.984Z,54.17
2023-02-06T23:04:13.899Z,56.77
2023-02-06T23:06:42.893Z,53.57
2023-02-06T23:09:14.525Z,53.17
2023-02-06T23:11:42.603Z,53.47
2023-02-06T23:14:13.912Z,56.20
2023-02-06T23:16:42.452Z,58.30
2023-02-06T23:19:11.684Z,59.47
2023-02-06T23:21:41.300Z,62.20
2023-02-06T23:24:11.430Z,62.10
2023-02-06T23:26:41.711Z,63.73
2023-02-06T23:29:15.654Z,61.90
2023-02-06T23:31:44.220Z,63.77
2023-02-06T23:34:13.333Z,62.07
2023-02-06T23:36:41.476Z,63.67
2023-02-06T23:39:09.567Z,62.27
2023-02-06T23:41:37.565Z,63.83
2023-02-06T23:44:07.354Z,63.77
2023-02-06T23:46:39.032Z,63.90
2023-02-06T23:49:07.432Z,66.07
2023-02-06T23:51:36.393Z,66.90
2023-02-06T23:54:05.162Z,64.23
2023-02-06T23:56:34.163Z,66.70
2023-02-06T23:59:03.234Z,66.17
